Time;durP1;ratioP1;P1;durP2;ratioP2;P2;SDS_P1;SDS_P2;PMS_P1;PMS_P2;Temp;Humidity;BMP_temperature;BMP_pressure;BME280_temperature;BME280_humidity;BME280_pressure;Samples;Min_cycle;Max_cycle;Signal;HPM_P1;HPM_P2
2022/01/30 00:01:30;;;;;;;24.43;2.77;;;;;;;;;;5041709;28;20187;-67
2022/01/30 00:03:55;;;;;;;19.33;3.40;;;;;;;;;;5039776;28;20866;-67
2022/01/30 00:06:21;;;;;;;21.53;2.90;;;;;;;;;;5043886;28;20239;-67
2022/01/30 00:08:48;;;;;;;14.20;2.30;;;;;;;;;;5046326;28;20220;-68
2022/01/30 00:11:18;;;;;;;23.23;3.40;;;;;;;;;;5042802;28;20234;-68
2022/01/30 00:13:44;;;;;;;22.70;2.80;;;;;;;;;;5042723;28;20762;-69
2022/01/30 00:16:10;;;;;;;20.17;3.07;;;;;;;;;;5046316;28;20180;-68
2022/01/30 00:21:32;;;;;;;18.10;3.43;;;;;;;;;;5043792;28;20627;-68
2022/01/30 00:24:06;;;;;;;21.20;2.90;;;;;;;;;;5047646;28;20180;-67
2022/01/30 00:26:34;;;;;;;19.47;3.20;;;;;;;;;;5044842;28;20196;-68
2022/01/30 00:29:00;;;;;;;17.93;2.87;;;;;;;;;;5044450;28;20707;-67
2022/01/30 00:31:26;;;;;;;24.50;3.60;;;;;;;;;;5043057;28;20213;-67
2022/01/30 00:33:53;;;;;;;16.37;2.73;;;;;;;;;;5045859;28;20630;-67
2022/01/30 00:36:18;;;;;;;16.43;2.37;;;;;;;;;;5046251;28;20276;-67
2022/01/30 00:38:44;;;;;;;13.40;2.00;;;;;;;;;;5043638;28;20248;-68
2022/01/30 00:41:09;;;;;;;13.83;1.80;;;;;;;;;;5045815;28;20182;-67
2022/01/30 00:43:35;;;;;;;11.03;1.50;;;;;;;;;;5043207;28;20227;-67
2022/01/30 00:46:00;;;;;;;15.37;1.70;;;;;;;;;;5049545;28;20189;-68
2022/01/30 00:48:26;;;;;;;15.30;2.00;;;;;;;;;;5047124;28;20182;-68
2022/01/30 00:50:51;;;;;;;9.43;2.10;;;;;;;;;;5050232;28;20280;-67
2022/01/30 00:53:17;;;;;;;13.30;2.10;;;;;;;;;;5045361;28;20232;-68
2022/01/30 00:55:42;;;;;;;10.40;1.53;;;;;;;;;;5042482;28;20778;-68
2022/01/30 00:58:08;;;;;;;16.70;2.70;;;;;;;;;;5048080;28;20178;-68
2022/01/30 01:00:34;;;;;;;14.33;2.13;;;;;;;;;;5048394;28;20233;-68
2022/01/30 01:03:00;;;;;;;13.40;2.10;;;;;;;;;;5043391;28;20177;-68
2022/01/30 01:05:26;;;;;;;16.87;3.00;;;;;;;;;;5045120;28;20602;-68
2022/01/30 01:07:54;;;;;;;13.73;1.27;;;;;;;;;;5043840;28;20371;-68
2022/01/30 01:10:35;;;;;;;12.20;2.00;;;;;;;;;;5043335;28;20193;-68
2022/01/30 01:23:45;;;;;;;13.57;1.90;;;;;;;;;;5046053;28;20181;-67
2022/01/30 01:26:11;;;;;;;11.20;1.50;;;;;;;;;;5043362;28;20280;-67
2022/01/30 01:28:37;;;;;;;11.57;1.50;;;;;;;;;;5047055;28;20199;-67
2022/01/30 01:31:03;;;;;;;14.20;2.40;;;;;;;;;;5040785;28;20625;-68
2022/01/30 01:33:40;;;;;;;12.63;1.60;;;;;;;;;;5046744;28;20201;-68
2022/01/30 01:36:06;;;;;;;18.03;2.07;;;;;;;;;;5044233;28;20185;-67
2022/01/30 01:38:31;;;;;;;10.33;1.90;;;;;;;;;;5047753;28;20188;-68
2022/01/30 01:40:57;;;;;;;12.37;1.80;;;;;;;;;;5042120;28;20239;-68
2022/01/30 01:43:26;;;;;;;19.43;2.37;;;;;;;;;;5042363;28;20196;-67
2022/01/30 01:45:54;;;;;;;9.43;2.00;;;;;;;;;;5041920;28;20202;-67
2022/01/30 01:48:19;;;;;;;8.83;1.70;;;;;;;;;;5041053;28;20713;-67
2022/01/30 01:50:53;;;;;;;14.47;1.90;;;;;;;;;;5040390;28;20324;-67
2022/01/30 01:53:23;;;;;;;17.53;2.17;;;;;;;;;;5045248;28;20484;-67
2022/01/30 01:55:49;;;;;;;15.53;2.17;;;;;;;;;;5042702;28;20299;-67
2022/01/30 01:58:15;;;;;;;17.43;2.50;;;;;;;;;;5044008;28;20196;-67
2022/01/30 02:00:40;;;;;;;12.47;2.40;;;;;;;;;;5043624;28;20189;-67
2022/01/30 02:03:06;;;;;;;18.60;2.13;;;;;;;;;;5045557;28;20498;-67
2022/01/30 02:05:34;;;;;;;11.77;1.70;;;;;;;;;;5047305;28;20226;-67
2022/01/30 02:11:09;;;;;;;17.40;2.10;;;;;;;;;;5044686;28;20232;-68
2022/01/30 02:25:02;;;;;;;16.40;2.97;;;;;;;;;;5042453;28;20213;-68
2022/01/30 02:27:04;;;;;;;13.00;1.97;;;;;;;;;;5040191;28;20701;-67
2022/01/30 02:29:30;;;;;;;16.90;2.67;;;;;;;;;;5043479;28;20192;-67
2022/01/30 02:31:58;;;;;;;18.37;3.70;;;;;;;;;;5043444;28;20288;-68
2022/01/30 02:34:28;;;;;;;24.23;3.70;;;;;;;;;;5043744;28;20376;-68
2022/01/30 02:36:54;;;;;;;16.40;2.00;;;;;;;;;;5041709;28;20659;-68
2022/01/30 02:39:21;;;;;;;15.40;1.97;;;;;;;;;;5041045;28;20181;-68
2022/01/30 02:41:47;;;;;;;18.17;1.83;;;;;;;;;;5039795;28;20211;-67
2022/01/30 02:44:27;;;;;;;16.37;2.10;;;;;;;;;;5039008;28;20583;-68
2022/01/30 02:46:56;;;;;;;16.27;3.37;;;;;;;;;;5041135;28;20269;-67
2022/01/30 02:51:55;;;;;;;16.37;3.00;;;;;;;;;;5041754;28;20268;-67
2022/01/30 02:54:21;;;;;;;17.03;2.83;;;;;;;;;;5045428;28;20718;-68
2022/01/30 02:56:47;;;;;;;15.37;2.13;;;;;;;;;;5041345;28;20341;-68
2022/01/30 02:59:12;;;;;;;12.50;2.27;;;;;;;;;;5042776;28;20636;-68
2022/01/30 03:01:38;;;;;;;15.07;2.50;;;;;;;;;;5044249;28;20424;-68
2022/01/30 03:04:04;;;;;;;13.47;2.10;;;;;;;;;;5043011;28;20211;-68
2022/01/30 03:06:30;;;;;;;15.70;2.17;;;;;;;;;;5046621;28;20189;-67
2022/01/30 03:08:55;;;;;;;20.20;2.40;;;;;;;;;;5044105;28;20192;-69
2022/01/30 03:11:21;;;;;;;10.43;1.67;;;;;;;;;;5040789;28;20208;-66
2022/01/30 03:13:46;;;;;;;19.77;2.37;;;;;;;;;;5040201;28;20275;-67
2022/01/30 03:16:12;;;;;;;14.67;1.90;;;;;;;;;;5041161;28;20204;-67
2022/01/30 03:18:37;;;;;;;19.27;2.10;;;;;;;;;;5040852;28;20190;-67
2022/01/30 03:21:03;;;;;;;14.30;1.70;;;;;;;;;;5042086;28;20181;-68
2022/01/30 03:23:29;;;;;;;11.63;1.67;;;;;;;;;;5040970;28;20602;-68
2022/01/30 03:25:58;;;;;;;19.20;2.27;;;;;;;;;;5044169;28;20258;-68
2022/01/30 03:28:24;;;;;;;14.20;1.93;;;;;;;;;;5031938;28;20197;-68
2022/01/30 03:30:54;;;;;;;12.40;2.20;;;;;;;;;;5043392;28;20559;-68
2022/01/30 03:33:20;;;;;;;19.33;2.63;;;;;;;;;;5043276;28;20724;-68
2022/01/30 03:35:45;;;;;;;15.67;2.47;;;;;;;;;;5041920;28;20479;-68
2022/01/30 03:38:10;;;;;;;15.63;2.30;;;;;;;;;;5041285;28;20186;-68
2022/01/30 03:40:36;;;;;;;15.33;1.80;;;;;;;;;;5044302;28;20650;-68
2022/01/30 03:43:01;;;;;;;14.27;1.87;;;;;;;;;;5037552;28;20182;-68
2022/01/30 03:45:27;;;;;;;14.33;1.77;;;;;;;;;;5042205;28;20201;-68
2022/01/30 03:47:55;;;;;;;14.37;1.80;;;;;;;;;;5044928;28;20213;-68
2022/01/30 03:50:22;;;;;;;13.57;2.43;;;;;;;;;;5043814;28;20217;-68
2022/01/30 03:52:47;;;;;;;13.37;1.50;;;;;;;;;;5043122;28;20825;-68
2022/01/30 03:55:12;;;;;;;15.57;2.07;;;;;;;;;;5038258;28;20177;-68
2022/01/30 03:57:37;;;;;;;16.17;1.87;;;;;;;;;;5039175;28;20189;-68
2022/01/30 04:00:05;;;;;;;15.80;2.60;;;;;;;;;;5036751;28;20185;-68
2022/01/30 04:02:30;;;;;;;25.67;2.63;;;;;;;;;;5045775;28;20532;-67
2022/01/30 04:04:55;;;;;;;12.70;2.27;;;;;;;;;;5046081;28;20189;-67
2022/01/30 04:07:21;;;;;;;13.10;2.07;;;;;;;;;;5047516;28;20170;-67
2022/01/30 04:09:47;;;;;;;13.83;2.30;;;;;;;;;;5044618;28;20190;-67
2022/01/30 04:12:13;;;;;;;17.53;2.33;;;;;;;;;;5042713;28;20233;-67
2022/01/30 04:14:39;;;;;;;22.93;2.57;;;;;;;;;;5046190;28;20197;-67
2022/01/30 04:17:08;;;;;;;18.10;2.30;;;;;;;;;;5045620;28;20185;-68
2022/01/30 04:19:33;;;;;;;14.77;1.90;;;;;;;;;;5047881;28;20205;-67
2022/01/30 04:21:59;;;;;;;12.07;2.40;;;;;;;;;;5044445;28;20190;-68
2022/01/30 04:24:24;;;;;;;18.17;2.37;;;;;;;;;;5042893;28;20185;-68
2022/01/30 04:26:49;;;;;;;17.87;3.03;;;;;;;;;;5048048;28;20734;-67
2022/01/30 04:29:15;;;;;;;16.87;2.13;;;;;;;;;;5043616;28;20177;-67
2022/01/30 04:31:42;;;;;;;19.63;2.87;;;;;;;;;;5041408;28;20209;-67
2022/01/30 04:34:08;;;;;;;15.17;2.70;;;;;;;;;;5041167;28;20300;-67
2022/01/30 04:36:39;;;;;;;16.80;2.67;;;;;;;;;;5044959;28;20269;-68
2022/01/30 04:39:32;;;;;;;18.80;2.40;;;;;;;;;;5043326;28;20596;-68
2022/01/30 04:42:16;;;;;;;25.50;2.97;;;;;;;;;;5047898;28;20182;-67
2022/01/30 04:53:20;;;;;;;27.70;3.57;;;;;;;;;;5042772;28;20298;-67
2022/01/30 04:56:22;;;;;;;21.90;3.30;;;;;;;;;;5047311;28;20586;-67
2022/01/30 05:01:21;;;;;;;19.90;3.50;;;;;;;;;;5014511;28;20193;-67
2022/01/30 05:06:17;;;;;;;22.10;3.27;;;;;;;;;;5043834;28;20272;-68
2022/01/30 05:08:43;;;;;;;27.73;2.93;;;;;;;;;;5049691;28;20185;-68
2022/01/30 05:11:09;;;;;;;26.13;3.27;;;;;;;;;;5043556;28;20180;-68
2022/01/30 05:13:39;;;;;;;22.83;3.07;;;;;;;;;;5047777;28;20217;-68
2022/01/30 05:16:04;;;;;;;24.93;4.37;;;;;;;;;;5041467;28;20409;-68
2022/01/30 05:18:30;;;;;;;23.90;3.53;;;;;;;;;;5047474;28;20186;-68
2022/01/30 05:20:56;;;;;;;23.53;3.43;;;;;;;;;;5044363;28;20212;-68
2022/01/30 05:23:22;;;;;;;18.23;3.27;;;;;;;;;;5042362;28;20213;-67
2022/01/30 05:25:49;;;;;;;27.87;3.57;;;;;;;;;;5045304;28;20193;-67
2022/01/30 05:28:16;;;;;;;25.73;3.87;;;;;;;;;;5042131;28;20189;-67
2022/01/30 05:30:43;;;;;;;22.27;3.23;;;;;;;;;;5039469;28;20418;-67
2022/01/30 05:33:08;;;;;;;22.27;3.63;;;;;;;;;;5044809;28;20296;-67
2022/01/30 05:35:34;;;;;;;27.10;3.40;;;;;;;;;;5040406;28;20269;-67
2022/01/30 05:38:01;;;;;;;25.50;3.40;;;;;;;;;;5039467;28;20182;-67
2022/01/30 05:40:27;;;;;;;26.17;3.37;;;;;;;;;;5044405;28;20186;-67
2022/01/30 05:42:53;;;;;;;23.57;3.37;;;;;;;;;;5047377;28;20268;-67
2022/01/30 05:47:54;;;;;;;29.00;3.50;;;;;;;;;;5041943;28;20197;-67
2022/01/30 05:50:20;;;;;;;22.37;4.20;;;;;;;;;;5043209;28;20241;-67
2022/01/30 05:52:45;;;;;;;25.60;3.67;;;;;;;;;;5046078;28;20343;-67
2022/01/30 05:55:11;;;;;;;22.63;3.23;;;;;;;;;;5044556;28;20220;-67
2022/01/30 05:57:36;;;;;;;32.50;3.90;;;;;;;;;;5045523;28;20680;-67
2022/01/30 06:00:06;;;;;;;25.57;2.87;;;;;;;;;;5045162;28;20181;-67
2022/01/30 06:02:32;;;;;;;31.63;4.03;;;;;;;;;;5042265;28;20188;-67
2022/01/30 06:04:57;;;;;;;23.67;3.20;;;;;;;;;;5041598;28;20303;-67
2022/01/30 06:07:28;;;;;;;25.90;3.63;;;;;;;;;;5043040;28;20292;-67
2022/01/30 06:09:53;;;;;;;33.80;5.67;;;;;;;;;;5045893;28;20182;-67
2022/01/30 06:12:19;;;;;;;31.00;3.90;;;;;;;;;;5041026;28;20228;-67
2022/01/30 06:14:46;;;;;;;34.73;4.37;;;;;;;;;;5042706;28;20663;-67
2022/01/30 06:17:12;;;;;;;28.30;4.20;;;;;;;;;;5044610;28;20287;-67
2022/01/30 06:19:38;;;;;;;27.53;3.33;;;;;;;;;;5043316;28;20700;-67
2022/01/30 06:22:03;;;;;;;26.20;4.03;;;;;;;;;;5044564;28;20213;-67
2022/01/30 06:24:29;;;;;;;34.53;4.60;;;;;;;;;;5042940;28;20189;-67
2022/01/30 06:26:54;;;;;;;30.47;4.10;;;;;;;;;;5052050;28;20209;-67
2022/01/30 06:29:19;;;;;;;35.47;5.27;;;;;;;;;;5042479;28;20180;-67
2022/01/30 06:31:45;;;;;;;31.03;3.60;;;;;;;;;;5040961;28;20294;-67
2022/01/30 06:34:10;;;;;;;30.43;4.33;;;;;;;;;;5039668;28;20323;-68
2022/01/30 06:36:35;;;;;;;29.27;4.20;;;;;;;;;;5046501;28;20590;-67
2022/01/30 06:39:01;;;;;;;31.53;3.80;;;;;;;;;;5040116;28;20231;-68
2022/01/30 06:41:26;;;;;;;26.17;4.77;;;;;;;;;;5036898;28;20185;-68
2022/01/30 06:43:51;;;;;;;32.20;4.37;;;;;;;;;;5042988;28;20228;-66
2022/01/30 06:46:17;;;;;;;38.00;5.03;;;;;;;;;;5042839;28;20241;-67
2022/01/30 06:48:42;;;;;;;28.40;4.93;;;;;;;;;;5040790;28;20309;-67
2022/01/30 06:51:08;;;;;;;26.70;4.13;;;;;;;;;;5045404;28;20233;-67
2022/01/30 06:53:33;;;;;;;33.43;4.67;;;;;;;;;;5042150;28;20486;-67
2022/01/30 06:55:59;;;;;;;27.13;4.23;;;;;;;;;;5044159;28;20189;-67
2022/01/30 06:58:24;;;;;;;41.00;5.40;;;;;;;;;;5038577;28;20247;-67
2022/01/30 07:00:49;;;;;;;39.07;5.07;;;;;;;;;;5040865;28;20193;-67
2022/01/30 07:03:15;;;;;;;25.90;4.07;;;;;;;;;;5043583;28;20204;-67
2022/01/30 07:05:40;;;;;;;32.50;5.50;;;;;;;;;;5043320;28;20759;-69
2022/01/30 07:08:05;;;;;;;30.13;4.57;;;;;;;;;;5040934;28;20177;-67
2022/01/30 07:10:31;;;;;;;37.33;4.20;;;;;;;;;;5044503;28;20246;-68
2022/01/30 07:12:56;;;;;;;36.57;4.93;;;;;;;;;;5039299;28;20271;-67
2022/01/30 07:15:21;;;;;;;29.57;5.97;;;;;;;;;;5040918;28;20261;-67
2022/01/30 07:17:47;;;;;;;34.03;4.60;;;;;;;;;;5042732;28;20783;-67
2022/01/30 07:20:13;;;;;;;26.83;4.53;;;;;;;;;;5042706;28;20250;-68
2022/01/30 07:22:39;;;;;;;32.80;4.80;;;;;;;;;;5044257;28;20194;-68
2022/01/30 07:25:07;;;;;;;33.63;5.30;;;;;;;;;;5042403;28;20197;-68
2022/01/30 07:27:37;;;;;;;28.87;4.67;;;;;;;;;;5043352;28;20192;-68
2022/01/30 07:30:07;;;;;;;31.73;4.43;;;;;;;;;;5042292;28;20224;-68
2022/01/30 07:32:32;;;;;;;33.63;4.20;;;;;;;;;;5040689;28;20258;-68
2022/01/30 07:34:58;;;;;;;34.63;4.73;;;;;;;;;;5043992;28;20582;-68
2022/01/30 07:37:23;;;;;;;32.40;4.60;;;;;;;;;;5040828;28;20189;-68
2022/01/30 07:39:49;;;;;;;24.97;4.23;;;;;;;;;;5045534;28;20250;-68
2022/01/30 07:42:15;;;;;;;33.80;4.87;;;;;;;;;;5043522;28;20212;-68
2022/01/30 07:44:40;;;;;;;33.07;4.50;;;;;;;;;;5048040;28;20209;-68
2022/01/30 07:47:06;;;;;;;29.97;5.07;;;;;;;;;;5043830;28;20181;-68
2022/01/30 07:49:32;;;;;;;40.43;4.80;;;;;;;;;;5046045;28;20197;-67
2022/01/30 07:51:57;;;;;;;37.83;5.20;;;;;;;;;;5043365;28;20186;-67
2022/01/30 07:54:22;;;;;;;36.90;5.43;;;;;;;;;;5044950;28;20223;-68
2022/01/30 07:56:48;;;;;;;36.30;5.27;;;;;;;;;;5043681;28;20498;-68
2022/01/30 07:59:13;;;;;;;34.03;4.60;;;;;;;;;;5044608;28;20181;-68
2022/01/30 08:01:39;;;;;;;35.30;5.03;;;;;;;;;;5042136;28;20201;-68
2022/01/30 08:04:07;;;;;;;33.87;5.13;;;;;;;;;;5043600;28;20188;-68
2022/01/30 08:06:33;;;;;;;31.23;5.30;;;;;;;;;;5045299;28;20340;-68
2022/01/30 08:08:58;;;;;;;25.43;4.77;;;;;;;;;;5043775;28;21124;-68
2022/01/30 08:11:24;;;;;;;35.47;4.50;;;;;;;;;;5045329;28;20190;-67
2022/01/30 08:13:49;;;;;;;32.50;5.23;;;;;;;;;;5042876;28;20328;-67
2022/01/30 08:16:14;;;;;;;34.93;5.30;;;;;;;;;;5041740;28;20551;-67
2022/01/30 08:18:40;;;;;;;33.87;4.20;;;;;;;;;;5041213;28;20537;-67
2022/01/30 08:21:05;;;;;;;36.63;5.53;;;;;;;;;;5045847;28;20205;-67
2022/01/30 08:23:33;;;;;;;36.20;5.33;;;;;;;;;;5040459;28;20181;-68
2022/01/30 08:26:00;;;;;;;37.40;5.57;;;;;;;;;;5048023;28;20170;-68
2022/01/30 08:28:25;;;;;;;34.70;5.33;;;;;;;;;;5041714;28;20192;-68
2022/01/30 08:30:51;;;;;;;37.73;4.70;;;;;;;;;;5044275;28;20201;-68
2022/01/30 08:33:17;;;;;;;32.33;5.50;;;;;;;;;;5045464;28;20209;-68
2022/01/30 08:35:43;;;;;;;33.53;5.07;;;;;;;;;;5046043;28;20194;-68
2022/01/30 08:38:10;;;;;;;37.83;5.37;;;;;;;;;;5040678;28;20189;-68
2022/01/30 08:40:35;;;;;;;40.97;5.33;;;;;;;;;;5043533;28;20640;-69
2022/01/30 08:43:02;;;;;;;34.70;6.17;;;;;;;;;;5042435;28;20190;-67
2022/01/30 08:45:27;;;;;;;33.50;4.73;;;;;;;;;;5045283;28;20181;-67
2022/01/30 08:47:53;;;;;;;27.90;4.97;;;;;;;;;;5046906;28;20510;-68
2022/01/30 08:50:20;;;;;;;43.57;6.00;;;;;;;;;;5041290;28;20736;-68
2022/01/30 08:52:46;;;;;;;32.60;4.97;;;;;;;;;;5043446;28;20196;-68
2022/01/30 08:55:14;;;;;;;38.53;5.27;;;;;;;;;;5043783;28;20194;-68
2022/01/30 08:57:39;;;;;;;37.93;5.20;;;;;;;;;;5043538;28;20208;-68
2022/01/30 09:00:08;;;;;;;35.37;4.67;;;;;;;;;;5045517;28;20182;-67
2022/01/30 09:02:34;;;;;;;35.33;5.40;;;;;;;;;;5044524;28;20189;-67
2022/01/30 09:04:59;;;;;;;33.63;5.40;;;;;;;;;;5044183;28;20194;-67
2022/01/30 09:07:25;;;;;;;38.23;5.30;;;;;;;;;;5036896;28;20252;-68
2022/01/30 09:09:50;;;;;;;44.33;6.47;;;;;;;;;;5044422;28;20561;-68
2022/01/30 09:12:15;;;;;;;36.47;5.37;;;;;;;;;;5046200;28;20308;-68
2022/01/30 09:14:42;;;;;;;36.20;5.33;;;;;;;;;;5042807;28;20255;-68
2022/01/30 09:17:13;;;;;;;37.03;5.67;;;;;;;;;;5042934;28;20177;-67
2022/01/30 09:19:40;;;;;;;50.30;6.10;;;;;;;;;;5047269;28;20264;-68
2022/01/30 09:22:06;;;;;;;31.63;5.07;;;;;;;;;;5048059;28;20250;-67
2022/01/30 09:24:31;;;;;;;40.67;5.40;;;;;;;;;;5043206;28;20185;-67
2022/01/30 09:26:56;;;;;;;43.63;5.70;;;;;;;;;;5045677;28;20198;-67
2022/01/30 09:29:22;;;;;;;46.40;6.20;;;;;;;;;;5044455;28;20208;-67
2022/01/30 09:31:49;;;;;;;35.87;5.53;;;;;;;;;;5045910;28;20248;-68
2022/01/30 09:34:14;;;;;;;35.00;5.47;;;;;;;;;;5041920;28;20206;-67
2022/01/30 09:36:39;;;;;;;35.70;5.87;;;;;;;;;;5042516;28;20204;-67
2022/01/30 09:39:05;;;;;;;32.60;4.97;;;;;;;;;;5039337;28;20575;-68
2022/01/30 09:41:32;;;;;;;45.60;6.73;;;;;;;;;;5045392;28;20493;-67
2022/01/30 09:44:00;;;;;;;38.83;5.80;;;;;;;;;;5041556;28;20187;-66
2022/01/30 09:46:28;;;;;;;40.77;5.40;;;;;;;;;;5044499;28;20399;-67
2022/01/30 09:48:53;;;;;;;31.53;5.53;;;;;;;;;;4345758;28;10000790;-67
2022/01/30 09:51:18;;;;;;;43.20;6.73;;;;;;;;;;5041049;28;20309;-68
2022/01/30 09:53:44;;;;;;;34.63;5.20;;;;;;;;;;5041174;28;20730;-67
2022/01/30 09:56:09;;;;;;;32.63;5.63;;;;;;;;;;5042050;28;20299;-67
2022/01/30 09:58:35;;;;;;;38.90;5.53;;;;;;;;;;5039252;28;20209;-67
2022/01/30 10:01:01;;;;;;;39.00;6.17;;;;;;;;;;5043150;28;20188;-67
2022/01/30 10:03:27;;;;;;;27.90;5.27;;;;;;;;;;5036097;28;20247;-68
2022/01/30 10:06:10;;;;;;;28.57;6.03;;;;;;;;;;5042408;28;20621;-68
2022/01/30 10:08:42;;;;;;;33.33;5.53;;;;;;;;;;5041271;28;20281;-68
2022/01/30 10:11:27;;;;;;;35.87;5.90;;;;;;;;;;5036541;28;20247;-67
2022/01/30 10:14:02;;;;;;;37.63;4.70;;;;;;;;;;5037914;28;20217;-67
2022/01/30 10:16:28;;;;;;;35.80;4.90;;;;;;;;;;5041777;28;20283;-67
2022/01/30 10:18:53;;;;;;;30.87;4.97;;;;;;;;;;5038632;28;20278;-67
2022/01/30 10:21:20;;;;;;;31.43;5.07;;;;;;;;;;5041440;28;20247;-68
2022/01/30 10:23:46;;;;;;;37.00;5.07;;;;;;;;;;5037259;28;20188;-67
2022/01/30 10:26:17;;;;;;;41.23;6.30;;;;;;;;;;5050774;28;20186;-67
2022/01/30 10:28:44;;;;;;;29.20;4.63;;;;;;;;;;5038374;28;20220;-67
2022/01/30 10:31:09;;;;;;;33.33;5.37;;;;;;;;;;5040987;28;20215;-67
2022/01/30 10:33:49;;;;;;;30.43;4.57;;;;;;;;;;5033962;28;20209;-67
2022/01/30 10:36:21;;;;;;;34.70;6.47;;;;;;;;;;5036290;28;20235;-67
2022/01/30 10:38:57;;;;;;;28.97;5.10;;;;;;;;;;5035864;28;20205;-68
2022/01/30 10:41:34;;;;;;;35.00;5.60;;;;;;;;;;5040031;28;20221;-67
2022/01/30 10:44:05;;;;;;;29.60;4.00;;;;;;;;;;5038739;28;20177;-67
2022/01/30 10:46:44;;;;;;;33.37;5.57;;;;;;;;;;5043669;28;20178;-67
2022/01/30 10:49:14;;;;;;;36.00;5.30;;;;;;;;;;5041751;28;20282;-67
2022/01/30 10:51:54;;;;;;;28.93;5.03;;;;;;;;;;5043913;28;20194;-67
2022/01/30 10:54:20;;;;;;;36.03;5.77;;;;;;;;;;5042602;28;20536;-68
2022/01/30 10:56:45;;;;;;;29.73;4.20;;;;;;;;;;5045713;28;20200;-67
2022/01/30 10:59:22;;;;;;;28.97;4.97;;;;;;;;;;5042959;28;20177;-67
2022/01/30 11:01:50;;;;;;;32.60;5.47;;;;;;;;;;5040261;28;20501;-67
2022/01/30 11:04:30;;;;;;;25.17;4.53;;;;;;;;;;5041058;28;20173;-67
2022/01/30 11:06:58;;;;;;;44.87;5.43;;;;;;;;;;5034511;28;20287;-67
2022/01/30 11:09:43;;;;;;;32.17;4.70;;;;;;;;;;5040476;28;20196;-68
2022/01/30 11:12:13;;;;;;;52.53;5.90;;;;;;;;;;5040583;28;20711;-67
2022/01/30 11:14:51;;;;;;;33.27;5.30;;;;;;;;;;5045540;28;20213;-68
2022/01/30 11:17:19;;;;;;;29.87;4.93;;;;;;;;;;5044241;28;20184;-66
2022/01/30 11:19:48;;;;;;;32.80;5.00;;;;;;;;;;5044489;28;20192;-68
2022/01/30 11:22:18;;;;;;;32.97;4.47;;;;;;;;;;5047297;28;20182;-67
2022/01/30 11:24:54;;;;;;;40.13;5.13;;;;;;;;;;5044710;28;20195;-67
2022/01/30 11:27:22;;;;;;;31.40;4.90;;;;;;;;;;5046699;28;20605;-67
2022/01/30 11:29:49;;;;;;;33.73;4.73;;;;;;;;;;5043052;28;20181;-67
2022/01/30 11:32:16;;;;;;;31.30;5.60;;;;;;;;;;5048302;28;20185;-68
2022/01/30 11:34:43;;;;;;;30.23;4.63;;;;;;;;;;5045871;28;20214;-66
2022/01/30 11:37:11;;;;;;;32.53;5.17;;;;;;;;;;5049364;28;20205;-67
2022/01/30 11:39:42;;;;;;;36.07;4.77;;;;;;;;;;5044352;28;20197;-68
2022/01/30 11:42:08;;;;;;;38.20;6.10;;;;;;;;;;5050221;28;20696;-67
2022/01/30 11:44:34;;;;;;;36.50;5.40;;;;;;;;;;5045345;28;20257;-67
2022/01/30 11:46:59;;;;;;;32.83;5.80;;;;;;;;;;5048835;28;20589;-67
2022/01/30 11:49:46;;;;;;;33.67;6.10;;;;;;;;;;5044805;28;20211;-67
2022/01/30 11:52:14;;;;;;;34.30;5.37;;;;;;;;;;5048268;28;20169;-68
2022/01/30 11:54:46;;;;;;;34.97;4.53;;;;;;;;;;5046562;28;20205;-66
2022/01/30 11:57:18;;;;;;;28.53;4.83;;;;;;;;;;5047014;28;20193;-67
2022/01/30 11:59:43;;;;;;;33.57;5.10;;;;;;;;;;5044414;28;20185;-67
2022/01/30 12:02:37;;;;;;;32.57;5.07;;;;;;;;;;5046270;28;20346;-67
2022/01/30 12:05:06;;;;;;;32.30;5.23;;;;;;;;;;5037637;28;20348;-67
2022/01/30 12:07:39;;;;;;;31.53;4.57;;;;;;;;;;5049954;28;20181;-67
2022/01/30 12:10:19;;;;;;;33.30;5.17;;;;;;;;;;5043362;28;20189;-67
2022/01/30 12:12:56;;;;;;;30.53;5.20;;;;;;;;;;5048510;28;20233;-68
2022/01/30 12:15:34;;;;;;;29.43;4.33;;;;;;;;;;5036326;28;20505;-67
2022/01/30 12:18:00;;;;;;;27.37;4.57;;;;;;;;;;5045571;28;20284;-67
2022/01/30 12:20:31;;;;;;;35.63;5.20;;;;;;;;;;5048673;28;20191;-67
2022/01/30 12:22:57;;;;;;;30.47;5.37;;;;;;;;;;5043887;28;20189;-67
2022/01/30 12:25:31;;;;;;;33.13;4.43;;;;;;;;;;5036190;28;20201;-67
2022/01/30 12:28:02;;;;;;;27.23;4.60;;;;;;;;;;5043948;28;20284;-67
2022/01/30 12:30:39;;;;;;;28.43;5.00;;;;;;;;;;5046566;28;20224;-67
2022/01/30 12:33:36;;;;;;;31.67;4.93;;;;;;;;;;5047052;28;20291;-68
2022/01/30 12:36:09;;;;;;;22.67;4.03;;;;;;;;;;5044353;28;20209;-67
2022/01/30 12:38:35;;;;;;;35.07;4.77;;;;;;;;;;5047330;28;20288;-67
2022/01/30 12:41:14;;;;;;;32.80;4.60;;;;;;;;;;5050736;28;20277;-67
2022/01/30 12:43:40;;;;;;;29.53;4.53;;;;;;;;;;5042086;28;20180;-67
2022/01/30 12:46:10;;;;;;;36.80;5.00;;;;;;;;;;5043884;28;21768;-67
2022/01/30 12:48:36;;;;;;;32.30;5.00;;;;;;;;;;5046201;28;20625;-67
2022/01/30 12:51:06;;;;;;;30.60;5.63;;;;;;;;;;5042923;28;20182;-67
2022/01/30 12:53:35;;;;;;;33.57;4.57;;;;;;;;;;5044331;28;20632;-68
2022/01/30 12:56:00;;;;;;;33.47;5.17;;;;;;;;;;5045495;28;20575;-66
2022/01/30 12:58:34;;;;;;;35.60;4.47;;;;;;;;;;5045897;28;20277;-67
2022/01/30 13:01:11;;;;;;;31.07;5.13;;;;;;;;;;5045026;28;20190;-67
2022/01/30 13:03:37;;;;;;;33.63;5.67;;;;;;;;;;5044137;28;20238;-67
2022/01/30 13:06:03;;;;;;;49.90;6.30;;;;;;;;;;5043516;28;20579;-67
2022/01/30 13:08:49;;;;;;;30.43;4.80;;;;;;;;;;5047817;28;20212;-67
2022/01/30 13:11:21;;;;;;;34.07;4.37;;;;;;;;;;5041127;28;20492;-68
2022/01/30 13:13:55;;;;;;;36.30;5.60;;;;;;;;;;5042220;28;20240;-68
2022/01/30 13:16:29;;;;;;;35.23;5.37;;;;;;;;;;5045027;28;20489;-68
2022/01/30 13:18:55;;;;;;;36.30;5.30;;;;;;;;;;5043461;28;20196;-68
2022/01/30 13:21:22;;;;;;;25.53;4.70;;;;;;;;;;5042532;28;20512;-67
2022/01/30 13:23:47;;;;;;;39.30;6.10;;;;;;;;;;5043701;28;21008;-68
2022/01/30 13:26:34;;;;;;;38.43;5.53;;;;;;;;;;5043738;28;20189;-68
2022/01/30 13:29:01;;;;;;;45.87;5.60;;;;;;;;;;5039416;28;20267;-66
2022/01/30 13:31:30;;;;;;;42.10;5.30;;;;;;;;;;5044357;28;20430;-67
2022/01/30 13:34:12;;;;;;;30.73;5.23;;;;;;;;;;5040270;28;20299;-67
2022/01/30 13:36:40;;;;;;;27.63;4.87;;;;;;;;;;5045511;28;20189;-67
2022/01/30 13:39:10;;;;;;;29.13;5.10;;;;;;;;;;5043383;28;20600;-67
2022/01/30 13:41:45;;;;;;;34.87;5.07;;;;;;;;;;5047778;28;20653;-68
2022/01/30 13:44:22;;;;;;;28.20;4.50;;;;;;;;;;5042332;28;20252;-67
2022/01/30 13:47:00;;;;;;;31.53;4.70;;;;;;;;;;5043327;28;20196;-66
2022/01/30 13:49:26;;;;;;;35.57;5.30;;;;;;;;;;5042051;28;20184;-67
2022/01/30 13:52:08;;;;;;;34.23;5.07;;;;;;;;;;5044498;28;20189;-67
2022/01/30 13:54:36;;;;;;;28.07;5.00;;;;;;;;;;5042406;28;20198;-67
2022/01/30 13:57:04;;;;;;;33.57;4.67;;;;;;;;;;5041548;28;20196;-68
2022/01/30 13:59:36;;;;;;;37.07;5.60;;;;;;;;;;5057433;28;21158;-66
2022/01/30 14:02:06;;;;;;;36.27;5.20;;;;;;;;;;5057032;28;20196;-67
2022/01/30 14:04:32;;;;;;;33.87;4.40;;;;;;;;;;5059874;28;20184;-67
2022/01/30 14:07:00;;;;;;;34.77;5.30;;;;;;;;;;5058682;28;20200;-67
2022/01/30 14:09:36;;;;;;;34.50;6.73;;;;;;;;;;5061274;28;20502;-67
2022/01/30 14:12:04;;;;;;;37.87;5.60;;;;;;;;;;5058732;28;20828;-68
2022/01/30 14:14:33;;;;;;;33.70;6.10;;;;;;;;;;5055966;28;20204;-67
2022/01/30 14:17:01;;;;;;;36.57;4.87;;;;;;;;;;5057296;28;20184;-67
2022/01/30 14:19:30;;;;;;;29.33;4.93;;;;;;;;;;5059473;28;20616;-67
2022/01/30 14:22:10;;;;;;;31.70;5.80;;;;;;;;;;5057291;28;20675;-68
2022/01/30 14:24:44;;;;;;;29.90;5.47;;;;;;;;;;5059077;28;20461;-67
2022/01/30 14:27:11;;;;;;;37.40;5.53;;;;;;;;;;5056350;28;20187;-67
2022/01/30 14:29:37;;;;;;;34.87;5.07;;;;;;;;;;5058703;28;20416;-66
2022/01/30 14:32:09;;;;;;;39.27;5.20;;;;;;;;;;5055220;28;20255;-67
2022/01/30 14:34:35;;;;;;;44.07;4.60;;;;;;;;;;5057063;28;20216;-66
2022/01/30 14:37:03;;;;;;;40.07;5.67;;;;;;;;;;5059404;28;20302;-67
2022/01/30 14:39:33;;;;;;;34.67;5.63;;;;;;;;;;5057143;28;20254;-66
2022/01/30 14:41:59;;;;;;;42.30;5.73;;;;;;;;;;5057102;28;20189;-66
2022/01/30 14:44:26;;;;;;;33.77;5.00;;;;;;;;;;5056687;28;20692;-66
2022/01/30 14:46:51;;;;;;;33.47;5.13;;;;;;;;;;5059914;28;20173;-66
2022/01/30 14:49:17;;;;;;;43.90;6.33;;;;;;;;;;5054101;28;20189;-67
2022/01/30 14:51:47;;;;;;;38.80;4.67;;;;;;;;;;5059245;28;20641;-67
2022/01/30 14:54:14;;;;;;;34.67;5.03;;;;;;;;;;5055647;28;20195;-67
2022/01/30 14:56:39;;;;;;;39.27;4.70;;;;;;;;;;5059360;28;20215;-67
2022/01/30 14:59:04;;;;;;;38.33;5.50;;;;;;;;;;5055751;28;20656;-67
2022/01/30 15:01:30;;;;;;;32.80;5.53;;;;;;;;;;5060296;28;20184;-68
2022/01/30 15:03:56;;;;;;;38.37;5.03;;;;;;;;;;5056252;28;20176;-67
2022/01/30 15:06:22;;;;;;;36.97;5.50;;;;;;;;;;5057804;28;20254;-67
2022/01/30 15:08:48;;;;;;;35.83;4.10;;;;;;;;;;5055413;28;20263;-67
2022/01/30 15:11:13;;;;;;;30.87;4.93;;;;;;;;;;5041509;28;20272;-65
2022/01/30 15:13:39;;;;;;;36.70;5.00;;;;;;;;;;5042123;28;20272;-67
2022/01/30 15:16:08;;;;;;;28.97;5.63;;;;;;;;;;5038865;28;20211;-67
2022/01/30 15:18:42;;;;;;;36.07;4.53;;;;;;;;;;5041624;28;20708;-67
2022/01/30 15:21:10;;;;;;;29.77;4.67;;;;;;;;;;5040406;28;20257;-67
2022/01/30 15:23:37;;;;;;;39.83;5.33;;;;;;;;;;5043655;28;20568;-67